Time;durP1;ratioP1;P1;durP2;ratioP2;P2;SDS_P1;SDS_P2;PMS_P1;PMS_P2;Temp;Humidity;BMP_temperature;BMP_pressure;BME280_temperature;BME280_humidity;BME280_pressure;Samples;Min_cycle;Max_cycle;Signal;HPM_P1;HPM_P2
2023/06/18 00:00:26;;;;;;;10.32;6.60;;;;;;;;;;6163440;23;20055;-95
2023/06/18 00:02:51;;;;;;;9.00;5.95;;;;;;;;;;6160581;23;20413;-94
2023/06/18 00:05:19;;;;;;;12.35;6.57;;;;;;;;;;6162344;23;20156;-94
2023/06/18 00:07:44;;;;;;;11.00;5.75;;;;;;;;;;6138958;23;20017;-94
2023/06/18 00:10:15;;;;;;;9.18;5.75;;;;;;;;;;6164447;23;19998;-93
2023/06/18 00:12:43;;;;;;;9.70;5.63;;;;;;;;;;6168338;23;20068;-95
2023/06/18 00:15:15;;;;;;;13.98;6.13;;;;;;;;;;6175214;23;20013;-94
2023/06/18 00:17:41;;;;;;;9.45;6.07;;;;;;;;;;6169972;23;19998;-94
2023/06/18 00:20:21;;;;;;;10.50;5.78;;;;;;;;;;6148579;23;20053;-93
2023/06/18 00:22:52;;;;;;;9.50;5.95;;;;;;;;;;6171501;23;20041;-94
2023/06/18 00:25:21;;;;;;;9.10;6.20;;;;;;;;;;6172915;23;20005;-94
2023/06/18 00:28:07;;;;;;;10.07;5.95;;;;;;;;;;6171169;23;20309;-93
2023/06/18 00:30:55;;;;;;;12.85;5.82;;;;;;;;;;6172433;23;20027;-94
2023/06/18 00:33:22;;;;;;;9.52;5.90;;;;;;;;;;6174390;23;19997;-93
2023/06/18 00:35:57;;;;;;;11.40;5.80;;;;;;;;;;6164758;23;20028;-95
2023/06/18 00:38:45;;;;;;;10.02;5.70;;;;;;;;;;6170265;23;19997;-94
2023/06/18 00:41:24;;;;;;;9.27;6.05;;;;;;;;;;6174533;23;19998;-94
2023/06/18 00:43:57;;;;;;;9.25;5.43;;;;;;;;;;6167660;23;20100;-94
2023/06/18 00:46:36;;;;;;;10.50;6.05;;;;;;;;;;6158115;23;19998;-94
2023/06/18 00:49:04;;;;;;;11.10;5.97;;;;;;;;;;6165752;23;20013;-94
2023/06/18 00:51:31;;;;;;;11.55;6.20;;;;;;;;;;6164153;23;20072;-93
2023/06/18 00:54:01;;;;;;;9.05;5.93;;;;;;;;;;6164608;23;20358;-94
2023/06/18 00:56:29;;;;;;;10.50;6.28;;;;;;;;;;6174243;23;19989;-94
2023/06/18 00:59:00;;;;;;;14.02;6.78;;;;;;;;;;6175905;23;20085;-94
2023/06/18 01:04:35;;;;;;;10.90;5.97;;;;;;;;;;6121827;23;20009;-94
2023/06/18 01:07:04;;;;;;;9.60;5.72;;;;;;;;;;6164599;23;20333;-94
2023/06/18 01:09:37;;;;;;;15.25;7.28;;;;;;;;;;6163739;23;20080;-94
2023/06/18 01:12:13;;;;;;;10.18;6.50;;;;;;;;;;6166904;23;20025;-94
2023/06/18 01:14:50;;;;;;;10.57;6.38;;;;;;;;;;6167604;23;20032;-94
2023/06/18 01:17:18;;;;;;;10.48;5.93;;;;;;;;;;6194970;23;20000;-94
2023/06/18 01:20:13;;;;;;;9.55;5.90;;;;;;;;;;6168818;23;20011;-93
2023/06/18 01:23:06;;;;;;;11.20;6.95;;;;;;;;;;6196412;23;20009;-94
2023/06/18 01:25:37;;;;;;;12.13;6.78;;;;;;;;;;6168409;23;20411;-94
2023/06/18 01:28:10;;;;;;;15.07;6.15;;;;;;;;;;6173328;23;19997;-93
2023/06/18 01:30:39;;;;;;;11.32;6.53;;;;;;;;;;6203085;23;20078;-96
2023/06/18 01:33:26;;;;;;;9.65;5.90;;;;;;;;;;6199244;23;20009;-93
2023/06/18 01:35:54;;;;;;;12.70;7.30;;;;;;;;;;6170158;23;20005;-94
2023/06/18 01:38:32;;;;;;;15.13;6.85;;;;;;;;;;6144743;23;20012;-94
2023/06/18 01:41:01;;;;;;;9.90;6.18;;;;;;;;;;6166606;23;20040;-93
2023/06/18 01:43:30;;;;;;;8.80;6.00;;;;;;;;;;6191761;23;20454;-94
2023/06/18 01:45:58;;;;;;;12.00;6.95;;;;;;;;;;6164448;23;20060;-94
2023/06/18 01:48:28;;;;;;;10.52;6.53;;;;;;;;;;6167120;23;20004;-95
2023/06/18 01:50:55;;;;;;;13.48;6.75;;;;;;;;;;6196432;23;20063;-96
2023/06/18 01:53:23;;;;;;;9.82;6.40;;;;;;;;;;6136261;23;20127;-93
2023/06/18 01:56:02;;;;;;;10.85;6.57;;;;;;;;;;6136110;23;20017;-94
2023/06/18 01:58:31;;;;;;;12.38;7.10;;;;;;;;;;6136904;23;20008;-93
2023/06/18 02:01:02;;;;;;;9.80;6.00;;;;;;;;;;6135015;23;20009;-94
2023/06/18 02:04:07;;;;;;;11.18;6.32;;;;;;;;;;6166851;23;20086;-96
2023/06/18 02:06:55;;;;;;;10.50;6.18;;;;;;;;;;6163987;23;20029;-95
2023/06/18 02:09:34;;;;;;;16.25;6.63;;;;;;;;;;6136439;23;20013;-95
2023/06/18 02:12:05;;;;;;;13.65;7.15;;;;;;;;;;6135694;23;19998;-93
2023/06/18 02:14:32;;;;;;;13.52;7.07;;;;;;;;;;6159674;23;20093;-94
2023/06/18 02:17:04;;;;;;;10.68;6.25;;;;;;;;;;6161768;23;19993;-96
2023/06/18 02:19:38;;;;;;;12.27;7.15;;;;;;;;;;6160702;23;20040;-94
2023/06/18 02:22:08;;;;;;;11.13;6.80;;;;;;;;;;6138165;23;20009;-95
2023/06/18 02:24:42;;;;;;;9.95;6.20;;;;;;;;;;6161776;23;19997;-94
2023/06/18 02:27:08;;;;;;;11.00;6.68;;;;;;;;;;6165139;23;20425;-94
2023/06/18 02:29:34;;;;;;;11.38;6.85;;;;;;;;;;6172781;23;20021;-94
2023/06/18 02:32:02;;;;;;;16.13;7.53;;;;;;;;;;6150134;23;20314;-96
2023/06/18 02:34:36;;;;;;;11.13;6.60;;;;;;;;;;6146114;23;20057;-93
2023/06/18 02:37:06;;;;;;;11.43;6.75;;;;;;;;;;6148379;23;20001;-94
2023/06/18 02:39:33;;;;;;;11.00;6.90;;;;;;;;;;6172407;23;20017;-93
2023/06/18 02:42:04;;;;;;;14.38;6.88;;;;;;;;;;6172604;23;19993;-94
2023/06/18 02:44:46;;;;;;;14.65;6.82;;;;;;;;;;6171011;23;20018;-94
2023/06/18 02:47:19;;;;;;;11.98;6.63;;;;;;;;;;6173181;23;20007;-93
2023/06/18 02:50:13;;;;;;;12.95;6.57;;;;;;;;;;6173392;23;20001;-93
2023/06/18 02:52:42;;;;;;;11.65;6.20;;;;;;;;;;6140253;23;20006;-93
2023/06/18 02:55:08;;;;;;;11.52;6.40;;;;;;;;;;6167238;23;20026;-93
2023/06/18 02:57:35;;;;;;;12.43;6.53;;;;;;;;;;6147554;23;20005;-94
2023/06/18 03:00:23;;;;;;;10.82;6.65;;;;;;;;;;6169997;23;20006;-94
2023/06/18 03:02:50;;;;;;;13.07;6.53;;;;;;;;;;6136205;23;20097;-93
2023/06/18 03:05:23;;;;;;;13.80;7.38;;;;;;;;;;6139380;23;19993;-93
2023/06/18 03:07:55;;;;;;;16.58;7.13;;;;;;;;;;6134428;23;20006;-94
2023/06/18 03:10:23;;;;;;;10.67;6.50;;;;;;;;;;6135425;23;20036;-94
2023/06/18 03:12:51;;;;;;;10.27;6.75;;;;;;;;;;6140750;23;20240;-94
2023/06/18 03:15:16;;;;;;;13.25;7.20;;;;;;;;;;6136097;23;20002;-94
2023/06/18 03:17:47;;;;;;;13.93;6.93;;;;;;;;;;6159964;23;20000;-94
2023/06/18 03:20:13;;;;;;;13.65;7.65;;;;;;;;;;6135454;23;20002;-94
2023/06/18 03:22:41;;;;;;;10.05;6.60;;;;;;;;;;6164338;23;20032;-93
2023/06/18 03:25:20;;;;;;;11.35;6.78;;;;;;;;;;6160698;23;19997;-95
2023/06/18 03:27:45;;;;;;;10.32;6.55;;;;;;;;;;6134892;23;20016;-93
2023/06/18 03:30:23;;;;;;;10.63;6.78;;;;;;;;;;6138935;23;19993;-94
2023/06/18 03:32:50;;;;;;;10.68;6.75;;;;;;;;;;6164093;23;20428;-94
2023/06/18 03:35:21;;;;;;;13.85;7.38;;;;;;;;;;6134496;23;20032;-94
2023/06/18 03:37:49;;;;;;;12.50;7.00;;;;;;;;;;6134331;23;19993;-94
2023/06/18 03:40:19;;;;;;;13.20;6.97;;;;;;;;;;6138433;23;20397;-94
2023/06/18 03:42:44;;;;;;;10.35;6.22;;;;;;;;;;6135546;23;20009;-94
2023/06/18 03:45:10;;;;;;;10.20;6.72;;;;;;;;;;6163181;23;20059;-93
2023/06/18 03:47:36;;;;;;;11.52;6.95;;;;;;;;;;6161331;23;20388;-93
2023/06/18 03:50:02;;;;;;;14.40;6.80;;;;;;;;;;6161556;23;20124;-94
2023/06/18 03:52:27;;;;;;;12.50;6.93;;;;;;;;;;6136202;23;19998;-94
2023/06/18 03:54:54;;;;;;;12.43;6.78;;;;;;;;;;6162249;23;20072;-94
2023/06/18 03:57:21;;;;;;;10.35;6.47;;;;;;;;;;6136373;23;20009;-94
2023/06/18 03:59:52;;;;;;;10.45;6.45;;;;;;;;;;6142194;23;20016;-93
2023/06/18 04:02:20;;;;;;;12.95;6.25;;;;;;;;;;6166262;23;20016;-94
2023/06/18 04:04:51;;;;;;;13.10;6.68;;;;;;;;;;6135516;23;19994;-94
2023/06/18 04:07:19;;;;;;;13.70;6.32;;;;;;;;;;6161481;23;20051;-94
2023/06/18 04:09:48;;;;;;;10.95;6.80;;;;;;;;;;6167589;23;20002;-96
2023/06/18 04:12:14;;;;;;;11.60;6.90;;;;;;;;;;6139203;23;20001;-94
2023/06/18 04:15:01;;;;;;;11.40;5.97;;;;;;;;;;6150630;23;19998;-93
2023/06/18 04:17:54;;;;;;;12.98;6.50;;;;;;;;;;6174033;23;20027;-94
2023/06/18 04:20:22;;;;;;;13.43;6.60;;;;;;;;;;6149710;23;20007;-94
2023/06/18 04:23:06;;;;;;;12.75;6.85;;;;;;;;;;6169352;23;20020;-93
2023/06/18 04:25:51;;;;;;;14.98;7.10;;;;;;;;;;6171797;23;20016;-93
2023/06/18 04:28:37;;;;;;;9.07;6.20;;;;;;;;;;6172274;23;20021;-94
2023/06/18 04:31:03;;;;;;;11.05;6.55;;;;;;;;;;6143849;23;20039;-94
2023/06/18 04:33:50;;;;;;;10.75;6.15;;;;;;;;;;6169876;23;20008;-93
2023/06/18 04:36:17;;;;;;;15.05;6.65;;;;;;;;;;6139653;23;20028;-93
2023/06/18 04:38:47;;;;;;;11.07;5.72;;;;;;;;;;6152709;23;20001;-93
2023/06/18 04:41:13;;;;;;;9.77;6.30;;;;;;;;;;6134502;23;20447;-93
2023/06/18 04:43:44;;;;;;;10.43;6.47;;;;;;;;;;6133995;23;20006;-93
2023/06/18 04:46:09;;;;;;;12.65;7.00;;;;;;;;;;6110381;23;20017;-94
2023/06/18 04:48:38;;;;;;;10.27;5.97;;;;;;;;;;6137006;23;20413;-93
2023/06/18 04:51:06;;;;;;;14.32;5.95;;;;;;;;;;6136539;23;20072;-93
2023/06/18 04:53:32;;;;;;;8.77;5.50;;;;;;;;;;6133871;23;20016;-93
2023/06/18 04:56:00;;;;;;;12.95;6.28;;;;;;;;;;6134072;23;20076;-94
2023/06/18 04:58:25;;;;;;;7.90;5.13;;;;;;;;;;6137799;23;20002;-94
2023/06/18 05:00:57;;;;;;;10.23;5.55;;;;;;;;;;6134112;23;20008;-94
2023/06/18 05:03:26;;;;;;;9.57;5.43;;;;;;;;;;6134161;23;20079;-93
2023/06/18 05:05:52;;;;;;;10.55;5.00;;;;;;;;;;6132595;23;20104;-94
2023/06/18 05:08:18;;;;;;;8.65;4.72;;;;;;;;;;6133548;23;20002;-94
2023/06/18 05:14:09;;;;;;;12.25;5.15;;;;;;;;;;6068524;23;20448;-94
2023/06/18 05:16:35;;;;;;;11.60;5.45;;;;;;;;;;6128477;23;20086;-93
2023/06/18 05:19:04;;;;;;;11.68;5.82;;;;;;;;;;6134370;23;20116;-94
2023/06/18 05:21:36;;;;;;;11.02;6.35;;;;;;;;;;6159462;23;20401;-93
2023/06/18 05:24:11;;;;;;;9.13;6.35;;;;;;;;;;6158253;23;19997;-93
2023/06/18 05:26:36;;;;;;;9.90;5.97;;;;;;;;;;6157891;23;20001;-93
2023/06/18 05:29:04;;;;;;;9.40;5.57;;;;;;;;;;6157541;23;20009;-93
2023/06/18 05:31:31;;;;;;;9.75;5.47;;;;;;;;;;6132557;23;20012;-93
2023/06/18 05:34:06;;;;;;;8.55;5.47;;;;;;;;;;6158998;23;20627;-94
2023/06/18 05:36:38;;;;;;;9.82;5.47;;;;;;;;;;6132153;23;20008;-96
2023/06/18 05:39:12;;;;;;;9.55;5.35;;;;;;;;;;6134805;23;20485;-96
2023/06/18 05:41:40;;;;;;;13.25;6.45;;;;;;;;;;6143978;23;20005;-93
2023/06/18 05:44:08;;;;;;;15.18;5.90;;;;;;;;;;6142206;23;20063;-93
2023/06/18 05:46:50;;;;;;;12.02;5.68;;;;;;;;;;6158706;23;20005;-94
2023/06/18 05:49:16;;;;;;;15.82;5.80;;;;;;;;;;6134198;23;20003;-94
2023/06/18 05:51:45;;;;;;;10.35;5.70;;;;;;;;;;6133084;23;20020;-93
2023/06/18 05:54:10;;;;;;;9.75;5.50;;;;;;;;;;6138761;23;20090;-93
2023/06/18 05:56:36;;;;;;;9.80;5.70;;;;;;;;;;6160419;23;20441;-94
2023/06/18 05:59:05;;;;;;;11.13;4.95;;;;;;;;;;6136211;23;20012;-94
2023/06/18 06:01:35;;;;;;;7.80;5.32;;;;;;;;;;6159785;23;20344;-93
2023/06/18 06:04:20;;;;;;;9.45;5.55;;;;;;;;;;6159745;23;19997;-94
2023/06/18 06:06:47;;;;;;;7.85;5.00;;;;;;;;;;6134506;23;20096;-94
2023/06/18 06:09:13;;;;;;;8.70;5.35;;;;;;;;;;6134714;23;20029;-95
2023/06/18 06:11:44;;;;;;;8.98;5.60;;;;;;;;;;6138125;23;20005;-94
2023/06/18 06:14:09;;;;;;;10.82;6.03;;;;;;;;;;6138314;23;20002;-94
2023/06/18 06:16:58;;;;;;;14.35;5.95;;;;;;;;;;6166632;23;20017;-93
2023/06/18 06:19:37;;;;;;;10.43;5.15;;;;;;;;;;6140359;23;20001;-94
2023/06/18 06:22:02;;;;;;;8.80;5.18;;;;;;;;;;6139543;23;20009;-94
2023/06/18 06:24:48;;;;;;;10.02;5.38;;;;;;;;;;6134793;23;19997;-94
2023/06/18 06:27:17;;;;;;;8.63;5.57;;;;;;;;;;6133152;23;20002;-96
2023/06/18 06:29:47;;;;;;;7.78;4.90;;;;;;;;;;6132861;23;20088;-93
2023/06/18 06:35:17;;;;;;;8.57;5.07;;;;;;;;;;6140971;23;20025;-93
2023/06/18 06:37:46;;;;;;;12.38;5.82;;;;;;;;;;6136184;23;19997;-95
2023/06/18 06:40:12;;;;;;;13.10;5.63;;;;;;;;;;6134247;23;20052;-96
2023/06/18 06:42:38;;;;;;;7.70;5.00;;;;;;;;;;6133848;23;20017;-96
2023/06/18 06:45:11;;;;;;;12.43;5.22;;;;;;;;;;6158277;23;20001;-96
2023/06/18 06:47:39;;;;;;;10.77;6.05;;;;;;;;;;6136838;23;20024;-96
2023/06/18 06:50:25;;;;;;;9.40;5.30;;;;;;;;;;6159208;23;20010;-95
2023/06/18 06:52:55;;;;;;;8.52;4.38;;;;;;;;;;6129548;23;20005;-96
2023/06/18 06:55:27;;;;;;;7.55;5.13;;;;;;;;;;6134305;23;20012;-95
2023/06/18 06:57:56;;;;;;;9.43;5.43;;;;;;;;;;6132328;23;20005;-96
2023/06/18 07:00:25;;;;;;;10.27;5.43;;;;;;;;;;6133369;23;20032;-95
2023/06/18 07:02:53;;;;;;;6.72;5.13;;;;;;;;;;6132798;23;20484;-96
2023/06/18 07:05:19;;;;;;;7.95;5.10;;;;;;;;;;6132788;23;19997;-96
2023/06/18 07:07:47;;;;;;;8.65;5.07;;;;;;;;;;6139110;23;20047;-96
2023/06/18 07:10:16;;;;;;;9.25;4.97;;;;;;;;;;6160231;23;19993;-96
2023/06/18 07:12:45;;;;;;;9.65;5.28;;;;;;;;;;6163056;23;20060;-96
2023/06/18 07:15:17;;;;;;;7.88;5.22;;;;;;;;;;6134324;23;19998;-94
2023/06/18 07:17:45;;;;;;;7.75;4.85;;;;;;;;;;6136432;23;20013;-94
2023/06/18 07:20:14;;;;;;;9.55;4.88;;;;;;;;;;6162604;23;20002;-94
2023/06/18 07:22:40;;;;;;;12.30;6.30;;;;;;;;;;6160544;23;20297;-93
2023/06/18 07:25:08;;;;;;;9.07;4.80;;;;;;;;;;6134442;23;19997;-94
2023/06/18 07:27:46;;;;;;;12.05;5.53;;;;;;;;;;6133293;23;20065;-93
2023/06/18 07:30:13;;;;;;;7.47;4.93;;;;;;;;;;6161512;23;20005;-94
2023/06/18 07:32:45;;;;;;;9.05;4.95;;;;;;;;;;6168969;23;20005;-94
2023/06/18 07:35:21;;;;;;;;;;;;;;;;;;;;;
2023/06/18 07:37:49;;;;;;;12.48;5.05;;;;;;;;;;6151595;23;20013;-95
2023/06/18 07:40:25;;;;;;;6.88;4.68;;;;;;;;;;6159793;23;20321;-94
2023/06/18 07:42:55;;;;;;;6.45;4.13;;;;;;;;;;6139802;23;20041;-94
2023/06/18 07:45:23;;;;;;;7.65;4.40;;;;;;;;;;6165432;23;20014;-94
2023/06/18 07:47:49;;;;;;;8.80;4.25;;;;;;;;;;6140252;23;20017;-95
2023/06/18 07:50:14;;;;;;;9.23;4.68;;;;;;;;;;6144288;23;20045;-94
2023/06/18 07:52:40;;;;;;;7.72;4.88;;;;;;;;;;6141952;23;20218;-94
2023/06/18 08:05:50;;;;;;;7.68;4.93;;;;;;;;;;5589300;22;15054516;-95
2023/06/18 08:08:18;;;;;;;8.23;5.55;;;;;;;;;;6234581;23;20056;-94
2023/06/18 08:10:47;;;;;;;7.82;4.65;;;;;;;;;;6232659;23;20000;-95
2023/06/18 08:13:16;;;;;;;7.88;5.57;;;;;;;;;;6202263;23;20092;-94
2023/06/18 08:15:45;;;;;;;9.95;5.45;;;;;;;;;;6200325;23;20007;-95
2023/06/18 08:18:11;;;;;;;10.00;5.10;;;;;;;;;;6175652;23;20005;-95
2023/06/18 08:20:43;;;;;;;7.07;4.60;;;;;;;;;;6174013;23;20005;-95
2023/06/18 08:23:22;;;;;;;;;;;;;;;;;;;;;
2023/06/18 08:26:31;;;;;;;;;;;;;;;;;;;;;
2023/06/18 08:56:33;;;;;;;11.32;6.53;;;;;;;;;;6167441;23;20008;-94
2023/06/18 09:02:32;;;;;;;8.02;5.85;;;;;;;;;;6179980;23;20049;-95
2023/06/18 09:05:16;;;;;;;14.57;5.25;;;;;;;;;;6178423;23;20007;-95
2023/06/18 09:07:59;;;;;;;10.35;5.82;;;;;;;;;;6198693;23;19997;-95
2023/06/18 09:10:30;;;;;;;8.82;5.85;;;;;;;;;;6177852;23;20001;-96
2023/06/18 09:13:11;;;;;;;;;;;;;;;;;;;;;
2023/06/18 09:15:47;;;;;;;12.73;5.93;;;;;;;;;;6208275;23;20077;-95
2023/06/18 09:18:24;;;;;;;9.13;6.15;;;;;;;;;;6197378;23;20007;-95
2023/06/18 09:21:25;;;;;;;11.32;6.32;;;;;;;;;;6169580;23;20064;-96
2023/06/18 09:23:59;;;;;;;10.35;6.05;;;;;;;;;;6166436;23;20011;-95
2023/06/18 09:26:35;;;;;;;8.05;5.70;;;;;;;;;;6165600;23;19996;-94
2023/06/18 09:29:15;;;;;;;;;;;;;;;;;;;;;
2023/06/18 09:31:51;;;;;;;9.93;6.38;;;;;;;;;;6194221;23;20008;-95
2023/06/18 09:34:30;;;;;;;9.43;5.90;;;;;;;;;;6197879;23;20139;-96
2023/06/18 09:37:20;;;;;;;9.73;5.60;;;;;;;;;;6192059;23;20008;-95
2023/06/18 09:39:47;;;;;;;8.98;5.60;;;;;;;;;;6196918;23;20008;-95
2023/06/18 09:42:15;;;;;;;8.85;6.15;;;;;;;;;;6169158;23;20001;-95
2023/06/18 09:44:44;;;;;;;10.85;6.72;;;;;;;;;;6187397;23;20004;-95
2023/06/18 09:47:48;;;;;;;9.23;5.85;;;;;;;;;;6177270;23;20005;-95
2023/06/18 09:50:19;;;;;;;9.70;6.20;;;;;;;;;;6170175;23;20001;-94
2023/06/18 09:52:46;;;;;;;11.63;6.97;;;;;;;;;;6179907;23;20033;-95
2023/06/18 09:55:41;;;;;;;9.30;6.45;;;;;;;;;;6192804;23;20013;-95
2023/06/18 09:58:11;;;;;;;10.68;5.93;;;;;;;;;;6189174;23;19997;-95
2023/06/18 10:00:37;;;;;;;9.93;6.43;;;;;;;;;;6187657;23;19997;-95
2023/06/18 10:03:16;;;;;;;10.02;6.40;;;;;;;;;;6195514;23;20008;-95
2023/06/18 10:05:44;;;;;;;9.00;5.72;;;;;;;;;;6187115;23;20405;-95
2023/06/18 10:08:09;;;;;;;9.50;6.05;;;;;;;;;;6187824;23;20566;-95
2023/06/18 10:10:37;;;;;;;9.70;6.65;;;;;;;;;;6187860;23;20004;-95
2023/06/18 10:13:04;;;;;;;11.60;6.97;;;;;;;;;;6188935;23;20005;-96
2023/06/18 10:15:36;;;;;;;16.17;6.15;;;;;;;;;;6187419;23;20373;-95
2023/06/18 10:18:12;;;;;;;12.50;6.20;;;;;;;;;;6189715;23;20997;-95
2023/06/18 10:21:00;;;;;;;9.50;6.80;;;;;;;;;;6192438;23;20008;-95
2023/06/18 10:27:14;;;;;;;;;;;;;;;;;;;;;
2023/06/18 10:42:55;;;;;;;;;;;;;;;;;;;;;
2023/06/18 10:54:59;;;;;;;;;;;;;;;;;;;;;
2023/06/18 10:57:30;;;;;;;11.13;5.88;;;;;;;;;;6199909;23;20005;-94
2023/06/18 11:00:32;;;;;;;9.85;5.68;;;;;;;;;;6200404;23;20005;-95
2023/06/18 11:03:18;;;;;;;13.77;5.78;;;;;;;;;;6170138;23;19997;-94
2023/06/18 11:05:59;;;;;;;;;;;;;;;;;;;;;
2023/06/18 11:08:43;;;;;;;12.55;5.85;;;;;;;;;;6191034;23;20499;-94
2023/06/18 11:11:12;;;;;;;11.10;6.22;;;;;;;;;;6197887;23;19997;-95
2023/06/18 11:13:42;;;;;;;11.35;6.30;;;;;;;;;;6194205;23;20052;-94
2023/06/18 11:16:09;;;;;;;10.00;6.03;;;;;;;;;;6198843;23;20017;-95
2023/06/18 11:18:41;;;;;;;13.23;7.32;;;;;;;;;;6199803;23;19997;-95
2023/06/18 11:21:28;;;;;;;12.07;7.75;;;;;;;;;;6202435;23;19989;-94
2023/06/18 11:24:12;;;;;;;8.63;5.72;;;;;;;;;;6197549;23;20017;-95
2023/06/18 11:26:47;;;;;;;9.25;5.70;;;;;;;;;;6203081;23;20020;-95
2023/06/18 11:29:18;;;;;;;12.68;6.18;;;;;;;;;;6203334;23;20001;-95
2023/06/18 11:32:07;;;;;;;13.07;6.20;;;;;;;;;;6203443;23;20052;-95
2023/06/18 11:34:43;;;;;;;16.23;6.30;;;;;;;;;;6208670;23;20040;-94
2023/06/18 11:37:16;;;;;;;10.32;5.25;;;;;;;;;;6233434;23;20007;-95
2023/06/18 11:40:03;;;;;;;8.77;5.28;;;;;;;;;;6235140;23;20004;-95
2023/06/18 11:42:29;;;;;;;10.30;5.72;;;;;;;;;;6220612;23;20035;-94
2023/06/18 11:44:56;;;;;;;7.43;4.95;;;;;;;;;;6202909;23;20024;-95
2023/06/18 11:47:31;;;;;;;7.15;4.32;;;;;;;;;;6229264;23;20121;-94
2023/06/18 11:50:00;;;;;;;9.32;5.47;;;;;;;;;;6232926;23;19985;-94
2023/06/18 11:52:26;;;;;;;7.57;4.53;;;;;;;;;;6185623;23;20004;-94
2023/06/18 11:54:59;;;;;;;8.18;5.20;;;;;;;;;;6171044;23;20061;-94
2023/06/18 11:57:31;;;;;;;8.32;5.15;;;;;;;;;;6169094;23;20059;-94
2023/06/18 12:00:08;;;;;;;;;;;;;;;;;;6165746;23;20143;-96
2023/06/18 12:02:42;;;;;;;7.55;4.70;;;;;;;;;;6191874;23;19910;-95
2023/06/18 12:05:18;;;;;;;9.82;5.55;;;;;;;;;;6179096;23;20024;-93
2023/06/18 12:07:48;;;;;;;7.97;4.82;;;;;;;;;;6190280;23;19998;-95
2023/06/18 12:10:15;;;;;;;7.43;5.20;;;;;;;;;;6159355;23;20076;-94
2023/06/18 12:12:48;;;;;;;8.48;4.55;;;;;;;;;;6161650;23;20081;-96
2023/06/18 12:15:21;;;;;;;8.57;5.25;;;;;;;;;;6188504;23;20012;-94
2023/06/18 12:18:00;;;;;;;9.25;4.85;;;;;;;;;;6162889;23;19989;-95
2023/06/18 12:20:28;;;;;;;6.55;4.30;;;;;;;;;;6166748;23;20008;-94
2023/06/18 12:22:54;;;;;;;9.35;4.82;;;;;;;;;;6193265;23;19997;-93
2023/06/18 12:25:32;;;;;;;9.52;4.90;;;;;;;;;;6168788;23;20008;-94
2023/06/18 12:28:02;;;;;;;8.63;4.65;;;;;;;;;;6199337;23;20007;-95
2023/06/18 12:30:34;;;;;;;8.10;4.32;;;;;;;;;;6197147;23;20120;-94
2023/06/18 12:36:27;;;;;;;8.98;5.40;;;;;;;;;;6199925;23;20016;-94
2023/06/18 12:39:00;;;;;;;7.73;4.90;;;;;;;;;;6199009;23;20080;-95
2023/06/18 12:41:35;;;;;;;8.75;5.38;;;;;;;;;;6170403;23;20097;-94
2023/06/18 12:44:02;;;;;;;10.60;5.57;;;;;;;;;;6166183;23;20035;-93
2023/06/18 12:46:35;;;;;;;7.97;4.30;;;;;;;;;;6197832;23;20012;-96
2023/06/18 12:49:11;;;;;;;7.50;4.97;;;;;;;;;;6200106;23;20000;-94
2023/06/18 13:03:23;;;;;;;8.30;4.90;;;;;;;;;;6182568;23;20486;-94
2023/06/18 13:05:55;;;;;;;7.72;5.03;;;;;;;;;;6193136;23;20009;-93
2023/06/18 13:08:22;;;;;;;7.40;4.88;;;;;;;;;;6166305;23;20016;-94
2023/06/18 13:10:50;;;;;;;11.45;4.80;;;;;;;;;;6190193;23;20028;-94
2023/06/18 13:13:22;;;;;;;7.85;5.13;;;;;;;;;;6173036;23;20001;-94
2023/06/18 13:16:02;;;;;;;11.02;5.75;;;;;;;;;;6195045;23;20039;-93
2023/06/18 13:18:28;;;;;;;7.75;5.10;;;;;;;;;;6172510;23;20007;-94
2023/06/18 13:20:59;;;;;;;10.23;4.75;;;;;;;;;;6198206;23;20454;-94
2023/06/18 13:23:26;;;;;;;8.60;5.47;;;;;;;;;;6171821;23;20004;-94
2023/06/18 13:25:59;;;;;;;8.95;5.50;;;;;;;;;;6195940;23;20643;-94
2023/06/18 13:28:30;;;;;;;9.98;5.38;;;;;;;;;;6169988;23;20016;-94
2023/06/18 13:30:58;;;;;;;7.82;5.25;;;;;;;;;;6171111;23;20016;-94
2023/06/18 13:33:25;;;;;;;9.23;5.72;;;;;;;;;;6172016;23;20005;-94
2023/06/18 13:35:51;;;;;;;10.38;5.93;;;;;;;;;;6170255;23;20012;-94
2023/06/18 13:38:17;;;;;;;11.00;5.95;;;;;;;;;;6176663;23;20433;-94
2023/06/18 13:41:05;;;;;;;12.30;6.18;;;;;;;;;;6176869;23;20012;-94
2023/06/18 13:44:17;;;;;;;;;;;;;;;;;;;;;
2023/06/18 13:56:19;;;;;;;;;;;;;;;;;;;;;
2023/06/18 14:02:36;;;;;;;;;;;;;;;;;;;;;
2023/06/18 14:40:50;;;;;;;;;;;;;;;;;;;;;
2023/06/18 14:49:06;;;;;;;;;;;;;;;;;;;;;
2023/06/18 14:58:15;;;;;;;;;;;;;;;;;;;;;
2023/06/18 15:00:54;;;;;;;11.20;6.10;;;;;;;;;;6016832;23;20470;-95
2023/06/18 15:03:52;;;;;;;;;;;;;;;;;;;;;
2023/06/18 15:09:54;;;;;;;;;;;;;;;;;;;;;
2023/06/18 15:16:03;;;;;;;;;;;;;;;;;;;;;
